createdAt,value
2022-11-03T00:03:19.332Z,0.80
2022-11-03T00:08:21.170Z,0.90
2022-11-03T00:13:23.008Z,1.02
2022-11-03T00:18:24.931Z,1.05
2022-11-03T00:23:28.897Z,1.10
2022-11-03T00:28:32.599Z,0.70
2022-11-03T00:33:35.085Z,1.00
2022-11-03T00:38:37.798Z,0.82
2022-11-03T00:43:40.383Z,0.70
2022-11-03T00:48:42.704Z,0.85
2022-11-03T00:53:51.187Z,0.80
2022-11-03T00:58:54.323Z,0.82
2022-11-03T01:04:16.453Z,1.42
2022-11-03T01:09:19.742Z,0.88
2022-11-03T01:14:21.721Z,0.70
2022-11-03T01:19:25.362Z,1.02
2022-11-03T01:24:27.312Z,0.73
2022-11-03T01:29:29.212Z,0.80
2022-11-03T01:34:31.968Z,0.85
2022-11-03T01:39:34.222Z,0.70
2022-11-03T01:44:39.825Z,0.90
2022-11-03T01:49:45.456Z,1.63
2022-11-03T01:54:52.979Z,0.77
2022-11-03T01:59:58.604Z,1.20
2022-11-03T02:05:03.365Z,0.80
2022-11-03T02:10:06.430Z,1.00
2022-11-03T02:15:10.677Z,0.60
2022-11-03T02:20:22.716Z,0.80
2022-11-03T02:25:47.876Z,0.80
2022-11-03T02:31:16.220Z,0.88
2022-11-03T02:36:33.346Z,0.80
2022-11-03T02:41:38.225Z,1.10
2022-11-03T02:46:42.887Z,1.02
2022-11-03T02:51:44.846Z,0.82
2022-11-03T02:56:54.087Z,0.90
2022-11-03T03:02:07.018Z,1.02
2022-11-03T03:07:32.469Z,0.70
2022-11-03T03:12:38.023Z,0.98
2022-11-03T03:17:52.610Z,1.00
2022-11-03T03:23:15.853Z,0.95
2022-11-03T03:28:24.893Z,1.17
2022-11-03T03:38:44.133Z,1.38
2022-11-03T03:43:46.726Z,0.98
2022-11-03T03:48:49.220Z,1.20
2022-11-03T03:53:53.270Z,0.93
2022-11-03T03:58:55.091Z,0.80
2022-11-03T04:03:57.281Z,1.00
2022-11-03T04:08:59.084Z,0.90
2022-11-03T04:14:19.480Z,1.15
2022-11-03T04:19:39.724Z,1.13
2022-11-03T04:24:41.702Z,1.00
2022-11-03T04:29:43.565Z,1.42
2022-11-03T04:34:47.411Z,1.10
2022-11-03T04:39:49.302Z,1.42
2022-11-03T04:44:51.248Z,1.10
2022-11-03T04:49:53.171Z,1.30
2022-11-03T04:54:55.008Z,1.67
2022-11-03T04:59:57.085Z,1.52
2022-11-03T05:04:59.524Z,1.50
2022-11-03T05:10:02.849Z,1.17
2022-11-03T05:15:23.351Z,1.27
2022-11-03T05:20:49.627Z,1.60
2022-11-03T05:25:54.338Z,2.13
2022-11-03T05:30:57.516Z,1.83
2022-11-03T05:36:08.301Z,2.65
2022-11-03T05:41:21.048Z,2.30
2022-11-03T05:46:24.288Z,1.77
2022-11-03T05:51:32.921Z,1.60
2022-11-03T05:56:35.280Z,1.40
2022-11-03T06:01:39.923Z,3.15
2022-11-03T06:06:41.902Z,1.40
2022-11-03T06:11:44.347Z,1.27
2022-11-03T06:16:59.923Z,1.08
2022-11-03T06:22:28.036Z,1.10
2022-11-03T06:27:32.224Z,2.00
2022-11-03T06:32:34.211Z,1.10
2022-11-03T06:37:36.337Z,1.65
2022-11-03T06:42:41.453Z,1.42
2022-11-03T06:47:43.311Z,1.30
2022-11-03T06:58:08.074Z,2.40
2022-11-03T07:03:39.049Z,2.25
2022-11-03T07:08:47.013Z,2.03
2022-11-03T07:13:52.309Z,2.72
2022-11-03T07:18:54.195Z,2.08
2022-11-03T07:24:00.092Z,2.00
2022-11-03T07:29:02.895Z,2.10
2022-11-03T07:34:11.169Z,1.95
2022-11-03T07:39:19.761Z,2.47
2022-11-03T07:44:21.925Z,2.55
2022-11-03T07:49:28.712Z,2.00
2022-11-03T07:54:33.784Z,1.80
2022-11-03T07:59:39.226Z,1.70
2022-11-03T08:04:41.000Z,1.90
2022-11-03T08:09:42.871Z,1.38
2022-11-03T08:14:44.687Z,1.52
2022-11-03T08:19:46.685Z,1.38
2022-11-03T08:24:48.691Z,2.42
2022-11-03T08:29:50.713Z,0.90
2022-11-03T08:34:52.990Z,1.30
2022-11-03T08:39:54.942Z,0.73
2022-11-03T08:44:56.861Z,1.02
2022-11-03T08:50:00.192Z,1.02
2022-11-03T08:55:02.152Z,1.00
2022-11-03T09:00:06.298Z,0.80
2022-11-03T09:05:08.882Z,0.80
2022-11-03T09:10:20.157Z,0.75
2022-11-03T09:15:24.366Z,0.80
2022-11-03T09:20:26.813Z,1.10
2022-11-03T09:25:28.745Z,0.73
2022-11-03T09:30:30.873Z,0.90
2022-11-03T09:35:32.763Z,0.73
2022-11-03T09:40:35.977Z,0.70
2022-11-03T09:45:39.297Z,0.65
2022-11-03T09:50:41.511Z,0.70
2022-11-03T09:55:43.577Z,0.88
2022-11-03T10:00:46.278Z,0.88
2022-11-03T10:05:48.542Z,0.95
2022-11-03T10:10:51.630Z,0.77
2022-11-03T10:15:53.765Z,0.88
2022-11-03T10:20:56.696Z,0.73
2022-11-03T10:26:25.007Z,0.60
2022-11-03T10:31:41.022Z,0.80
2022-11-03T10:36:48.048Z,0.98
2022-11-03T10:41:58.757Z,1.00
2022-11-03T10:47:02.929Z,0.85
2022-11-03T10:52:22.682Z,0.82
2022-11-03T10:57:25.578Z,0.88
2022-11-03T11:02:32.289Z,0.88
2022-11-03T11:07:41.987Z,0.70
2022-11-03T11:13:19.355Z,0.63
2022-11-03T11:18:30.224Z,0.70
2022-11-03T11:23:35.342Z,1.08
2022-11-03T11:28:44.922Z,0.77
2022-11-03T11:33:46.833Z,1.08
2022-11-03T11:38:48.690Z,1.10
2022-11-03T11:43:50.748Z,1.00
2022-11-03T11:49:16.806Z,1.20
2022-11-03T11:54:21.167Z,0.90
2022-11-03T11:59:25.576Z,1.10
2022-11-03T12:04:31.682Z,1.38
2022-11-03T12:09:33.994Z,1.05
2022-11-03T12:14:38.287Z,1.25
2022-11-03T12:19:48.919Z,1.00
2022-11-03T12:24:54.916Z,0.85
2022-11-03T12:30:02.397Z,1.30
2022-11-03T12:35:08.341Z,1.50
2022-11-03T12:40:13.754Z,1.42
2022-11-03T12:45:15.646Z,0.90
2022-11-03T12:50:17.515Z,1.50
2022-11-03T12:55:19.588Z,1.10
2022-11-03T13:00:21.534Z,1.10
2022-11-03T13:05:23.548Z,1.10
2022-11-03T13:10:25.408Z,1.42
2022-11-03T13:15:27.287Z,1.20
2022-11-03T13:20:29.084Z,1.30
2022-11-03T13:25:31.947Z,1.33
2022-11-03T13:30:34.041Z,1.63
2022-11-03T13:35:35.921Z,1.63
2022-11-03T13:46:02.676Z,1.90
2022-11-03T13:51:05.075Z,1.65
2022-11-03T13:56:08.904Z,1.25
2022-11-03T14:01:12.453Z,1.77
2022-11-03T14:06:14.479Z,1.70
2022-11-03T14:11:34.766Z,1.70
2022-11-03T14:16:36.683Z,1.80
2022-11-03T14:21:41.046Z,1.70
2022-11-03T14:26:43.507Z,2.20
2022-11-03T14:31:45.826Z,2.63
2022-11-03T14:36:48.108Z,2.17
2022-11-03T14:42:05.630Z,2.72
2022-11-03T14:47:10.690Z,2.43
2022-11-03T14:52:13.392Z,2.80
2022-11-03T14:57:15.383Z,3.58
2022-11-03T15:02:17.514Z,2.78
2022-11-03T15:07:19.425Z,3.35
2022-11-03T15:12:21.164Z,3.60
2022-11-03T15:17:22.944Z,2.83
2022-11-03T15:27:46.754Z,4.38
2022-11-03T15:32:48.769Z,4.18
2022-11-03T15:37:50.817Z,4.25
2022-11-03T15:42:52.793Z,3.40
2022-11-03T15:47:58.281Z,3.70
2022-11-03T15:53:00.465Z,3.75
2022-11-03T15:58:02.522Z,3.78
2022-11-03T16:03:04.607Z,4.10
2022-11-03T16:08:06.848Z,3.65
2022-11-03T16:13:09.111Z,5.53
2022-11-03T16:18:12.213Z,4.13
2022-11-03T16:23:14.084Z,3.67
2022-11-03T16:28:15.889Z,4.22
2022-11-03T16:33:17.764Z,4.03
2022-11-03T16:38:19.669Z,4.68
2022-11-03T16:43:21.502Z,4.30
2022-11-03T16:48:23.373Z,3.70
2022-11-03T16:53:25.428Z,4.57
2022-11-03T16:58:27.387Z,4.72
2022-11-03T17:03:29.361Z,4.70
2022-11-03T17:08:51.848Z,4.30
2022-11-03T17:13:53.530Z,4.72
2022-11-03T17:18:55.564Z,3.85
2022-11-03T17:23:59.886Z,4.82
2022-11-03T17:29:01.930Z,4.95
2022-11-03T17:34:03.974Z,5.43
2022-11-03T17:39:06.229Z,5.18
2022-11-03T17:44:18.622Z,4.93
2022-11-03T17:49:20.629Z,4.45
2022-11-03T17:54:24.358Z,4.30
2022-11-03T17:59:27.739Z,4.25
2022-11-03T18:04:29.654Z,5.43
2022-11-03T18:09:31.504Z,4.25
2022-11-03T18:14:33.377Z,4.70
2022-11-03T18:19:35.320Z,4.47
2022-11-03T18:24:37.242Z,4.85
2022-11-03T18:29:39.286Z,5.28
2022-11-03T18:34:42.067Z,5.07
2022-11-03T18:39:43.943Z,6.55
2022-11-03T18:44:46.648Z,5.90
2022-11-03T18:49:49.216Z,5.07
2022-11-03T18:54:52.416Z,6.00
2022-11-03T18:59:54.535Z,5.55
2022-11-03T19:04:56.553Z,5.80
2022-11-03T19:09:58.799Z,6.25
2022-11-03T19:15:00.822Z,5.85
2022-11-03T19:20:14.095Z,6.78
2022-11-03T19:25:16.603Z,5.80
2022-11-03T19:30:20.208Z,5.65
2022-11-03T19:35:35.453Z,5.45
2022-11-03T19:40:59.984Z,7.00
2022-11-03T19:46:03.137Z,6.82
2022-11-03T19:51:06.421Z,7.38
2022-11-03T19:56:09.959Z,7.10
2022-11-03T20:01:11.915Z,8.35
2022-11-03T20:06:18.220Z,9.50
2022-11-03T20:11:22.102Z,9.63
2022-11-03T20:16:24.689Z,9.30
2022-11-03T20:21:32.994Z,9.38
2022-11-03T20:26:36.676Z,8.80
2022-11-03T20:31:38.819Z,8.32
2022-11-03T20:36:42.003Z,7.85
2022-11-03T20:41:54.496Z,8.80
2022-11-03T20:46:56.445Z,7.60
2022-11-03T20:51:58.618Z,7.15
2022-11-03T20:57:00.463Z,8.75
2022-11-03T21:02:02.587Z,9.02
2022-11-03T21:07:05.579Z,7.38
2022-11-03T21:12:12.081Z,7.50
2022-11-03T21:17:32.902Z,7.30
2022-11-03T21:22:54.059Z,6.97
2022-11-03T21:27:59.586Z,8.63
2022-11-03T21:33:01.459Z,7.70
2022-11-03T21:38:03.503Z,9.15
2022-11-03T21:43:23.937Z,8.13
2022-11-03T21:48:44.267Z,8.35
2022-11-03T21:53:47.061Z,7.07
2022-11-03T21:58:48.827Z,7.28
2022-11-03T22:03:50.562Z,7.80
2022-11-03T22:08:52.900Z,7.97
2022-11-03T22:14:00.017Z,7.53
2022-11-03T22:19:20.382Z,7.60
2022-11-03T22:24:40.742Z,7.35
2022-11-03T22:30:01.066Z,7.43
2022-11-03T22:35:22.816Z,7.15
2022-11-03T22:40:43.097Z,7.75
2022-11-03T22:45:51.256Z,6.95
2022-11-03T22:51:06.609Z,6.88
2022-11-03T22:56:09.086Z,6.35
2022-11-03T23:01:19.079Z,8.10
2022-11-03T23:06:26.489Z,6.00
2022-11-03T23:11:32.763Z,6.00
2022-11-03T23:16:40.655Z,6.85
2022-11-03T23:26:47.323Z,6.20
2022-11-03T23:31:49.142Z,7.30
2022-11-03T23:36:51.388Z,6.65
2022-11-03T23:41:53.131Z,7.18
2022-11-03T23:47:13.429Z,6.55
2022-11-03T23:52:15.143Z,6.75
2022-11-03T23:57:35.479Z,7.30
